createdAt,value
2023-02-16T00:00:02.838Z,42.20
2023-02-16T00:03:04.482Z,42.53
2023-02-16T00:06:06.228Z,43.80
2023-02-16T00:09:07.888Z,42.07
2023-02-16T00:12:47.906Z,40.40
2023-02-16T00:15:49.545Z,41.27
2023-02-16T00:18:52.137Z,42.90
2023-02-16T00:21:56.180Z,41.00
2023-02-16T00:24:57.977Z,42.97
2023-02-16T00:28:00.465Z,45.93
2023-02-16T00:31:02.473Z,41.83
2023-02-16T00:34:22.844Z,42.50
2023-02-16T00:37:24.441Z,39.00
2023-02-16T00:40:26.090Z,41.50
2023-02-16T00:43:29.778Z,37.50
2023-02-16T00:46:31.700Z,37.20
2023-02-16T00:49:33.302Z,37.60
2023-02-16T00:52:38.305Z,34.70
2023-02-16T00:55:41.925Z,39.40
2023-02-16T00:58:43.598Z,39.23
2023-02-16T01:01:45.863Z,37.67
2023-02-16T01:04:47.650Z,39.20
2023-02-16T01:08:07.740Z,39.83
2023-02-16T01:11:09.343Z,38.87
2023-02-16T01:14:12.801Z,40.10
2023-02-16T01:17:14.379Z,38.97
2023-02-16T01:20:24.250Z,43.00
2023-02-16T01:23:25.841Z,37.83
2023-02-16T01:26:27.720Z,36.77
2023-02-16T01:29:29.352Z,36.00
2023-02-16T01:32:30.937Z,35.57
2023-02-16T01:35:34.451Z,34.40
2023-02-16T01:38:36.024Z,40.00
2023-02-16T01:41:54.615Z,32.00
2023-02-16T01:45:03.074Z,33.53
2023-02-16T01:48:07.350Z,33.70
2023-02-16T01:51:26.257Z,33.30
2023-02-16T01:54:48.445Z,31.30
2023-02-16T01:58:04.822Z,32.47
2023-02-16T02:01:35.421Z,30.80
2023-02-16T02:05:12.790Z,30.63
2023-02-16T02:08:26.068Z,31.10
2023-02-16T02:11:36.498Z,29.03
2023-02-16T02:14:40.181Z,31.77
2023-02-16T02:17:41.759Z,31.90
2023-02-16T02:21:21.198Z,31.40
2023-02-16T02:25:05.331Z,31.30
2023-02-16T02:28:48.470Z,31.47
2023-02-16T02:31:53.243Z,32.57
2023-02-16T02:35:15.505Z,32.00
2023-02-16T02:38:38.666Z,31.97
2023-02-16T02:42:06.537Z,33.77
2023-02-16T02:45:34.274Z,36.17
2023-02-16T02:48:35.896Z,31.70
2023-02-16T02:51:40.234Z,31.70
2023-02-16T02:55:00.687Z,31.57
2023-02-16T02:58:21.706Z,32.80
2023-02-16T03:01:25.218Z,33.03
2023-02-16T03:04:30.685Z,32.70
2023-02-16T03:07:48.384Z,32.90
2023-02-16T03:11:17.669Z,31.63
2023-02-16T03:14:35.910Z,30.50
2023-02-16T03:17:58.870Z,30.30
2023-02-16T03:21:19.392Z,30.77
2023-02-16T03:24:45.633Z,30.70
2023-02-16T03:28:06.044Z,29.60
2023-02-16T03:31:11.683Z,26.90
2023-02-16T03:34:14.328Z,30.30
2023-02-16T03:37:16.154Z,30.30
2023-02-16T03:40:30.207Z,29.30
2023-02-16T03:43:32.378Z,30.07
2023-02-16T03:46:34.153Z,30.87
2023-02-16T03:49:35.723Z,32.20
2023-02-16T03:52:37.329Z,32.93
2023-02-16T03:55:44.769Z,31.17
2023-02-16T03:58:46.349Z,31.30
2023-02-16T04:01:47.938Z,32.30
2023-02-16T04:04:49.600Z,32.60
2023-02-16T04:07:51.575Z,31.97
2023-02-16T04:10:54.168Z,32.07
2023-02-16T04:13:55.771Z,30.17
2023-02-16T04:16:57.421Z,29.23
2023-02-16T04:19:59.117Z,31.70
2023-02-16T04:23:01.861Z,31.57
2023-02-16T04:26:03.828Z,29.13
2023-02-16T04:29:05.525Z,29.50
2023-02-16T04:32:07.248Z,29.53
2023-02-16T04:35:09.223Z,28.77
2023-02-16T04:38:10.800Z,28.70
2023-02-16T04:41:12.350Z,28.10
2023-02-16T04:44:13.998Z,27.50
2023-02-16T04:47:15.727Z,27.60
2023-02-16T04:50:17.437Z,29.47
2023-02-16T04:53:18.983Z,35.07
2023-02-16T04:56:20.593Z,32.60
2023-02-16T04:59:22.234Z,29.47
2023-02-16T05:02:23.833Z,30.97
2023-02-16T05:05:25.516Z,29.40
2023-02-16T05:08:27.449Z,27.43
2023-02-16T05:11:47.588Z,30.60
2023-02-16T05:14:49.776Z,29.03
2023-02-16T05:17:51.353Z,30.47
2023-02-16T05:21:11.688Z,33.37
2023-02-16T05:24:13.318Z,27.80
2023-02-16T05:27:17.900Z,31.30
2023-02-16T05:30:19.588Z,29.57
2023-02-16T05:33:21.165Z,26.40
2023-02-16T05:36:23.483Z,28.40
2023-02-16T05:39:25.238Z,27.80
2023-02-16T05:42:26.915Z,27.03
2023-02-16T05:45:28.527Z,27.10
2023-02-16T05:48:30.080Z,29.03
2023-02-16T05:51:32.022Z,26.27
2023-02-16T05:54:33.652Z,29.50
2023-02-16T05:57:35.637Z,28.53
2023-02-16T06:00:38.246Z,27.00
2023-02-16T06:03:39.917Z,29.50
2023-02-16T06:06:42.150Z,30.03
2023-02-16T06:09:44.025Z,25.43
2023-02-16T06:12:45.675Z,26.73
2023-02-16T06:15:50.503Z,27.13
2023-02-16T06:18:52.342Z,27.60
2023-02-16T06:21:53.929Z,33.10
2023-02-16T06:24:55.525Z,28.53
2023-02-16T06:27:57.116Z,29.50
2023-02-16T06:30:58.697Z,32.00
2023-02-16T06:34:03.572Z,27.80
2023-02-16T06:37:05.173Z,26.80
2023-02-16T06:40:09.893Z,29.67
2023-02-16T06:43:11.480Z,29.20
2023-02-16T06:46:13.126Z,26.90
2023-02-16T06:49:18.309Z,25.77
2023-02-16T06:52:20.113Z,27.03
2023-02-16T06:55:21.704Z,27.57
2023-02-16T06:58:23.337Z,25.07
2023-02-16T07:01:25.981Z,27.37
2023-02-16T07:04:27.885Z,25.03
2023-02-16T07:07:29.555Z,26.20
2023-02-16T07:10:43.941Z,24.73
2023-02-16T07:13:51.307Z,23.73
2023-02-16T07:16:52.940Z,25.50
2023-02-16T07:19:54.594Z,26.07
2023-02-16T07:22:56.315Z,25.17
2023-02-16T07:25:58.648Z,25.07
2023-02-16T07:29:00.266Z,25.80
2023-02-16T07:32:04.098Z,24.87
2023-02-16T07:35:06.010Z,26.57
2023-02-16T07:38:07.789Z,24.87
2023-02-16T07:41:10.608Z,24.53
2023-02-16T07:44:12.672Z,24.10
2023-02-16T07:47:14.490Z,25.83
2023-02-16T07:50:16.453Z,24.50
2023-02-16T07:53:18.376Z,32.00
2023-02-16T07:56:28.914Z,25.90
2023-02-16T07:59:30.702Z,24.50
2023-02-16T08:02:32.416Z,26.60
2023-02-16T08:05:34.414Z,27.80
2023-02-16T08:08:37.072Z,24.60
2023-02-16T08:11:38.668Z,24.43
2023-02-16T08:14:40.429Z,25.10
2023-02-16T08:17:42.147Z,24.40
2023-02-16T08:21:02.379Z,25.07
2023-02-16T08:24:07.576Z,26.90
2023-02-16T08:27:09.739Z,24.27
2023-02-16T08:30:12.725Z,24.60
2023-02-16T08:33:14.417Z,25.03
2023-02-16T08:36:21.438Z,25.73
2023-02-16T08:39:29.862Z,24.30
2023-02-16T08:42:31.470Z,23.50
2023-02-16T08:45:33.152Z,24.93
2023-02-16T08:48:36.331Z,25.37
2023-02-16T08:51:42.222Z,24.97
2023-02-16T08:54:43.853Z,26.10
2023-02-16T08:57:45.618Z,26.67
2023-02-16T09:00:47.480Z,27.63
2023-02-16T09:03:49.658Z,24.20
2023-02-16T09:06:52.261Z,24.10
2023-02-16T09:09:53.880Z,24.57
2023-02-16T09:12:55.621Z,26.03
2023-02-16T09:16:06.253Z,26.17
2023-02-16T09:19:08.067Z,29.70
2023-02-16T09:22:10.596Z,27.90
2023-02-16T09:25:12.573Z,25.60
2023-02-16T09:28:14.270Z,25.53
2023-02-16T09:31:35.809Z,27.20
2023-02-16T09:34:38.517Z,28.20
2023-02-16T09:37:40.123Z,24.50
2023-02-16T09:40:41.954Z,25.47
2023-02-16T09:43:51.845Z,25.60
2023-02-16T09:46:56.318Z,25.37
2023-02-16T09:50:01.533Z,25.60
2023-02-16T09:53:11.586Z,27.33
2023-02-16T09:56:18.454Z,26.20
2023-02-16T09:59:34.037Z,25.33
2023-02-16T10:03:00.393Z,27.20
2023-02-16T10:06:13.881Z,24.77
2023-02-16T10:09:18.288Z,26.23
2023-02-16T10:12:25.044Z,25.80
2023-02-16T10:15:30.285Z,26.00
2023-02-16T10:18:36.963Z,26.70
2023-02-16T10:21:42.117Z,23.77
2023-02-16T10:25:01.976Z,27.27
2023-02-16T10:28:23.058Z,27.70
2023-02-16T10:31:44.830Z,29.67
2023-02-16T10:35:15.165Z,30.10
2023-02-16T10:38:36.321Z,31.77
2023-02-16T10:41:44.135Z,32.50
2023-02-16T10:44:59.083Z,30.17
2023-02-16T10:48:01.158Z,29.30
2023-02-16T10:51:12.722Z,31.83
2023-02-16T10:54:26.972Z,32.30
2023-02-16T10:57:32.991Z,33.70
2023-02-16T11:00:52.072Z,33.00
2023-02-16T11:03:54.360Z,31.87
2023-02-16T11:07:20.969Z,33.20
2023-02-16T11:10:38.604Z,31.67
2023-02-16T11:13:40.560Z,34.03
2023-02-16T11:16:42.334Z,33.70
2023-02-16T11:20:00.061Z,33.17
2023-02-16T11:23:24.822Z,34.83
2023-02-16T11:26:28.706Z,35.83
2023-02-16T11:29:31.533Z,34.03
2023-02-16T11:32:34.206Z,34.50
2023-02-16T11:35:43.369Z,37.10
2023-02-16T11:39:03.561Z,34.17
2023-02-16T11:42:18.959Z,34.93
2023-02-16T11:45:31.258Z,34.53
2023-02-16T11:48:34.199Z,32.17
2023-02-16T11:51:36.460Z,36.47
2023-02-16T11:54:47.720Z,33.50
2023-02-16T11:57:50.042Z,34.37
2023-02-16T12:01:03.946Z,32.93
2023-02-16T12:04:29.053Z,32.97
2023-02-16T12:07:36.996Z,32.37
2023-02-16T12:10:59.501Z,33.47
2023-02-16T12:14:23.807Z,30.77
2023-02-16T12:17:46.860Z,35.07
2023-02-16T12:21:18.078Z,31.33
2023-02-16T12:24:49.103Z,31.97
2023-02-16T12:28:17.567Z,30.40
2023-02-16T12:31:35.650Z,33.30
2023-02-16T12:35:07.206Z,31.53
2023-02-16T12:38:28.561Z,31.40
2023-02-16T12:42:03.912Z,30.20
2023-02-16T12:45:19.058Z,29.57
2023-02-16T12:48:40.287Z,29.77
2023-02-16T12:51:48.741Z,31.77
2023-02-16T12:54:55.453Z,31.37
2023-02-16T12:58:04.578Z,30.80
2023-02-16T13:01:17.201Z,28.70
2023-02-16T13:04:40.186Z,29.80
2023-02-16T13:07:58.085Z,29.37
2023-02-16T13:11:20.505Z,29.57
2023-02-16T13:14:27.726Z,30.40
2023-02-16T13:17:37.049Z,27.17
2023-02-16T13:20:44.432Z,30.37
2023-02-16T13:24:10.258Z,29.53
2023-02-16T13:27:42.376Z,28.33
2023-02-16T13:31:04.695Z,30.03
2023-02-16T13:34:36.037Z,28.63
2023-02-16T13:37:59.589Z,27.53
2023-02-16T13:41:29.462Z,27.53
2023-02-16T13:44:36.976Z,28.60
2023-02-16T13:47:40.952Z,30.33
2023-02-16T13:50:43.750Z,30.77
2023-02-16T13:53:54.629Z,28.53
2023-02-16T13:56:56.570Z,29.97
2023-02-16T14:00:01.149Z,29.67
2023-02-16T14:03:05.206Z,29.93
2023-02-16T14:06:25.859Z,27.83
2023-02-16T14:09:35.892Z,28.80
2023-02-16T14:12:40.062Z,28.70
2023-02-16T14:15:54.973Z,35.53
2023-02-16T14:19:01.389Z,27.80
2023-02-16T14:22:11.615Z,27.90
2023-02-16T14:25:22.305Z,29.43
2023-02-16T14:28:29.722Z,26.57
2023-02-16T14:31:34.023Z,28.07
2023-02-16T14:34:52.643Z,29.60
2023-02-16T14:37:59.020Z,29.63
2023-02-16T14:41:03.999Z,29.70
2023-02-16T14:44:05.884Z,29.00
2023-02-16T14:47:37.893Z,29.67
2023-02-16T14:50:57.983Z,28.20
2023-02-16T14:54:25.144Z,29.40
2023-02-16T14:57:35.207Z,28.67
2023-02-16T15:00:48.273Z,28.97
2023-02-16T15:03:54.411Z,29.57
2023-02-16T15:06:58.481Z,31.33
2023-02-16T15:10:04.220Z,30.50
2023-02-16T15:13:06.022Z,30.70
2023-02-16T15:16:13.689Z,30.90
2023-02-16T15:19:23.944Z,29.90
2023-02-16T15:22:26.914Z,31.63
2023-02-16T15:25:32.713Z,30.70
2023-02-16T15:28:39.783Z,31.50
2023-02-16T15:31:41.610Z,31.60
2023-02-16T15:34:46.106Z,31.77
2023-02-16T15:37:47.717Z,33.30
2023-02-16T15:40:54.409Z,32.87
2023-02-16T15:43:57.653Z,32.00
2023-02-16T15:47:08.252Z,29.33
2023-02-16T15:50:14.210Z,34.20
2023-02-16T15:53:28.525Z,32.03
2023-02-16T15:56:44.983Z,35.70
2023-02-16T15:59:49.854Z,33.03
2023-02-16T16:02:56.439Z,33.63
2023-02-16T16:06:02.991Z,32.30
2023-02-16T16:09:08.547Z,34.70
2023-02-16T16:12:13.759Z,34.70
2023-02-16T16:15:22.851Z,32.90
2023-02-16T16:18:53.016Z,33.37
2023-02-16T16:21:55.609Z,35.00
2023-02-16T16:24:57.373Z,31.60
2023-02-16T16:27:59.616Z,32.63
2023-02-16T16:31:17.140Z,34.70
2023-02-16T16:34:37.189Z,31.13
2023-02-16T16:37:39.562Z,33.43
2023-02-16T16:40:41.537Z,34.43
2023-02-16T16:43:56.047Z,33.33
2023-02-16T16:46:57.694Z,34.10
2023-02-16T16:50:00.896Z,33.37
2023-02-16T16:53:03.032Z,33.90
2023-02-16T16:56:10.872Z,30.60
2023-02-16T16:59:12.458Z,32.23
2023-02-16T17:02:14.050Z,32.50
2023-02-16T17:05:15.814Z,31.57
2023-02-16T17:08:17.545Z,33.03
2023-02-16T17:11:25.201Z,32.57
2023-02-16T17:14:28.535Z,32.87
2023-02-16T17:17:31.501Z,34.00
2023-02-16T17:20:33.514Z,37.07
2023-02-16T17:23:35.115Z,35.40
2023-02-16T17:26:37.603Z,36.50
2023-02-16T17:29:42.635Z,35.10
2023-02-16T17:32:44.230Z,34.57
2023-02-16T17:35:46.126Z,32.20
2023-02-16T17:38:52.067Z,33.20
2023-02-16T17:41:53.684Z,32.17
2023-02-16T17:44:55.243Z,33.13
2023-02-16T17:47:57.060Z,32.87
2023-02-16T17:50:58.838Z,34.37
2023-02-16T17:54:00.439Z,49.40
2023-02-16T17:57:02.064Z,33.83
2023-02-16T18:00:16.532Z,32.53
2023-02-16T18:03:18.806Z,29.47
2023-02-16T18:06:25.089Z,31.60
2023-02-16T18:09:28.207Z,30.50
2023-02-16T18:12:30.230Z,33.13
2023-02-16T18:15:32.272Z,30.70
2023-02-16T18:18:36.672Z,30.90
2023-02-16T18:21:38.265Z,42.10
2023-02-16T18:24:39.966Z,38.93
2023-02-16T18:27:41.971Z,34.83
2023-02-16T18:30:43.668Z,33.10
2023-02-16T18:33:45.315Z,32.33
2023-02-16T18:36:46.959Z,32.87
2023-02-16T18:39:48.653Z,33.33
2023-02-16T18:42:50.783Z,30.13
2023-02-16T18:45:52.627Z,33.60
2023-02-16T18:48:54.286Z,32.30
2023-02-16T18:51:56.044Z,34.43
2023-02-16T18:54:57.697Z,33.77
2023-02-16T18:58:01.769Z,32.60
2023-02-16T19:01:36.045Z,35.57
2023-02-16T19:04:37.764Z,37.10
2023-02-16T19:07:39.515Z,31.70
2023-02-16T19:10:41.130Z,31.67
2023-02-16T19:13:43.163Z,31.33
2023-02-16T19:16:45.757Z,31.10
2023-02-16T19:19:47.365Z,32.90
2023-02-16T19:22:49.369Z,29.80
2023-02-16T19:25:50.977Z,30.90
2023-02-16T19:28:53.606Z,70.73
2023-02-16T19:31:55.345Z,35.20
2023-02-16T19:34:57.011Z,33.00
2023-02-16T19:38:00.506Z,33.83
2023-02-16T19:41:08.924Z,32.10
2023-02-16T19:44:14.408Z,33.67
2023-02-16T19:47:16.102Z,38.87
2023-02-16T19:50:17.931Z,37.83
2023-02-16T19:53:19.471Z,34.60
2023-02-16T19:56:23.985Z,32.33
2023-02-16T19:59:25.604Z,34.10
2023-02-16T20:02:27.311Z,33.40
2023-02-16T20:05:28.942Z,34.60
2023-02-16T20:08:30.532Z,32.17
2023-02-16T20:11:32.613Z,33.17
2023-02-16T20:14:34.207Z,45.27
2023-02-16T20:17:36.189Z,38.93
2023-02-16T20:20:37.884Z,36.60
2023-02-16T20:23:41.137Z,36.13
2023-02-16T20:26:51.875Z,33.50
2023-02-16T20:29:53.525Z,32.13
2023-02-16T20:32:55.126Z,31.10
2023-02-16T20:35:56.826Z,33.40
2023-02-16T20:38:58.588Z,32.97
2023-02-16T20:42:00.245Z,33.40
2023-02-16T20:45:01.930Z,32.93
2023-02-16T20:48:04.008Z,32.07
2023-02-16T20:51:07.764Z,33.00
2023-02-16T20:54:10.887Z,36.07
2023-02-16T20:57:25.668Z,34.27
2023-02-16T21:00:29.630Z,33.50
2023-02-16T21:03:31.182Z,33.17
2023-02-16T21:06:33.998Z,33.50
2023-02-16T21:09:35.695Z,30.97
2023-02-16T21:12:37.400Z,32.60
2023-02-16T21:15:38.980Z,31.60
2023-02-16T21:18:40.980Z,32.00
2023-02-16T21:21:42.673Z,30.37
2023-02-16T21:24:44.373Z,28.17
2023-02-16T21:27:45.990Z,27.23
2023-02-16T21:30:47.593Z,23.63
2023-02-16T21:33:49.504Z,23.40
2023-02-16T21:36:51.243Z,21.60
2023-02-16T21:40:11.575Z,19.10
2023-02-16T21:43:13.204Z,18.50
2023-02-16T21:46:14.889Z,16.40
2023-02-16T21:49:18.913Z,17.53
2023-02-16T21:52:20.529Z,16.03
2023-02-16T21:55:40.747Z,14.57
2023-02-16T21:58:42.647Z,15.10
2023-02-16T22:01:46.465Z,15.67
2023-02-16T22:04:48.502Z,15.97
2023-02-16T22:07:50.222Z,14.80
2023-02-16T22:10:51.874Z,14.97
2023-02-16T22:13:56.016Z,14.77
2023-02-16T22:16:57.771Z,13.67
2023-02-16T22:19:59.453Z,13.00
2023-02-16T22:23:01.137Z,14.70
2023-02-16T22:26:03.508Z,14.90
2023-02-16T22:29:07.017Z,15.50
2023-02-16T22:32:14.268Z,14.83
2023-02-16T22:35:15.936Z,14.97
2023-02-16T22:38:17.602Z,15.40
2023-02-16T22:41:19.883Z,15.97
2023-02-16T22:44:21.589Z,14.43
2023-02-16T22:47:23.169Z,14.50
2023-02-16T22:50:24.769Z,13.07
2023-02-16T22:53:27.109Z,12.67
2023-02-16T22:56:29.684Z,13.50
2023-02-16T22:59:31.304Z,13.23
2023-02-16T23:02:32.952Z,12.10
2023-02-16T23:05:34.557Z,11.40
2023-02-16T23:08:36.159Z,11.67
2023-02-16T23:11:37.730Z,13.60
2023-02-16T23:14:39.340Z,13.20
2023-02-16T23:17:40.962Z,12.60
2023-02-16T23:20:42.533Z,12.20
2023-02-16T23:23:45.069Z,14.20
2023-02-16T23:26:47.039Z,12.47
2023-02-16T23:29:49.197Z,13.83
2023-02-16T23:32:50.908Z,14.50
2023-02-16T23:35:52.595Z,13.80
2023-02-16T23:38:54.168Z,13.27
2023-02-16T23:41:56.653Z,13.87
2023-02-16T23:44:58.274Z,12.53
2023-02-16T23:47:59.879Z,13.50
2023-02-16T23:51:01.590Z,12.87
2023-02-16T23:54:03.294Z,14.00
2023-02-16T23:57:08.300Z,13.13
